Time;durP1;ratioP1;P1;durP2;ratioP2;P2;SDS_P1;SDS_P2;PMS_P1;PMS_P2;Temp;Humidity;BMP_temperature;BMP_pressure;BME280_temperature;BME280_humidity;BME280_pressure;Samples;Min_cycle;Max_cycle;Signal;HPM_P1;HPM_P2
2023/07/30 00:01:38;;;;;;;2.20;1.80;;;22.10;82.20;;;;;;4949643;28;20134;-38
2023/07/30 00:04:05;;;;;;;2.60;1.70;;;;;;;;;;4949532;28;20142;-35
2023/07/30 00:06:33;;;;;;;2.88;1.83;;;;;;;;;;4949541;28;20054;-38
2023/07/30 00:09:00;;;;;;;2.47;1.83;;;;;;;;;;4949538;28;20066;-36
2023/07/30 00:11:26;;;;;;;2.97;1.90;;;21.60;80.50;;;;;;4949433;28;20137;-36
2023/07/30 00:13:53;;;;;;;2.10;1.70;;;21.80;81.20;;;;;;4951761;28;20053;-36
2023/07/30 00:16:21;;;;;;;3.88;1.83;;;22.20;73.00;;;;;;4968643;28;20057;-38
2023/07/30 00:18:48;;;;;;;2.97;1.83;;;;;;;;;;4968458;28;20059;-34
2023/07/30 00:21:15;;;;;;;1.90;1.70;;;;;;;;;;4965875;28;20057;-39
2023/07/30 00:23:42;;;;;;;2.55;1.60;;;21.70;68.30;;;;;;4953818;28;20134;-39
2023/07/30 00:26:09;;;;;;;3.25;1.77;;;21.80;81.20;;;;;;4949205;28;20485;-39
2023/07/30 00:28:35;;;;;;;2.58;1.95;;;21.60;79.00;;;;;;4949334;28;20051;-39
2023/07/30 00:31:03;;;;;;;2.38;1.63;;;;;;;;;;4963065;28;20051;-36
2023/07/30 00:33:31;;;;;;;2.20;1.80;;;22.00;81.70;;;;;;4949367;28;20130;-35
2023/07/30 00:35:58;;;;;;;3.38;1.85;;;22.70;74.40;;;;;;4949577;28;20708;-36
2023/07/30 00:38:24;;;;;;;2.58;1.67;;;22.80;72.10;;;;;;4968081;28;20054;-37
2023/07/30 00:40:51;;;;;;;3.85;1.90;;;21.90;82.00;;;;;;4953768;28;20120;-37
2023/07/30 00:43:18;;;;;;;2.25;1.60;;;21.20;79.50;;;;;;4948865;28;20059;-40
2023/07/30 00:45:45;;;;;;;2.70;1.90;;;21.70;70.80;;;;;;4951512;28;20151;-35
2023/07/30 00:48:12;;;;;;;2.13;1.70;;;21.80;68.30;;;;;;4952092;28;20065;-37
2023/07/30 00:50:40;;;;;;;2.50;1.60;;;21.80;66.00;;;;;;4952211;28;20077;-34
2023/07/30 00:53:08;;;;;;;3.05;1.80;;;21.20;81.60;;;;;;4952406;28;20632;-38
2023/07/30 00:55:35;;;;;;;2.58;1.83;;;;;;;;;;4952436;28;20062;-34
2023/07/30 00:58:02;;;;;;;2.95;1.80;;;22.10;81.80;;;;;;4952541;28;20408;-37
2023/07/30 01:00:29;;;;;;;3.95;2.00;;;;;;;;;;4952210;28;20091;-33
2023/07/30 01:02:56;;;;;;;4.13;2.05;;;21.70;81.20;;;;;;4951712;28;20055;-39
2023/07/30 01:05:23;;;;;;;3.88;1.90;;;;;;;;;;4951916;28;20151;-39
2023/07/30 01:07:51;;;;;;;3.63;2.08;;;21.70;65.90;;;;;;4952239;28;20134;-36
2023/07/30 01:10:18;;;;;;;4.32;2.15;;;21.60;81.80;;;;;;4953008;28;20047;-38
2023/07/30 01:12:45;;;;;;;3.63;1.98;;;21.90;81.20;;;;;;4961672;28;20180;-36
2023/07/30 01:15:12;;;;;;;3.08;1.90;;;;;;;;;;4958766;28;20055;-37
2023/07/30 01:17:38;;;;;;;2.47;1.80;;;21.60;81.00;;;;;;4959584;28;20073;-39
2023/07/30 01:20:06;;;;;;;3.40;2.10;;;21.70;65.90;;;;;;4969141;28;20055;-39
2023/07/30 01:22:34;;;;;;;2.10;1.70;;;21.70;65.90;;;;;;4970746;28;20672;-36
2023/07/30 01:25:01;;;;;;;3.15;1.92;;;;;;;;;;4970984;28;20141;-37
2023/07/30 01:27:30;;;;;;;3.70;1.90;;;21.40;81.80;;;;;;4964448;28;20131;-37
2023/07/30 01:30:00;;;;;;;4.07;1.90;;;22.30;81.30;;;;;;4951717;28;20066;-38
2023/07/30 01:32:27;;;;;;;3.70;1.80;;;21.70;65.80;;;;;;4951594;28;20138;-39
2023/07/30 01:34:56;;;;;;;3.03;1.80;;;20.80;65.40;;;;;;4951298;28;20055;-37
2023/07/30 01:37:23;;;;;;;4.20;2.15;;;21.70;81.40;;;;;;4963944;28;20051;-38
2023/07/30 01:39:51;;;;;;;3.95;2.03;;;21.70;65.80;;;;;;4970685;28;20530;-38
2023/07/30 01:42:18;;;;;;;4.35;2.00;;;;;;;;;;4970774;28;20137;-38
2023/07/30 01:44:45;;;;;;;4.05;2.03;;;;;;;;;;4952521;28;20065;-38
2023/07/30 01:47:12;;;;;;;2.38;1.65;;;;;;;;;;4951380;28;20584;-37
2023/07/30 01:49:39;;;;;;;3.17;1.90;;;21.60;73.50;;;;;;4951260;28;20635;-35
2023/07/30 01:52:06;;;;;;;3.58;1.83;;;21.50;67.90;;;;;;4951680;28;20164;-36
2023/07/30 01:54:33;;;;;;;2.90;1.83;;;;;;;;;;4951198;28;20150;-37
2023/07/30 01:57:02;;;;;;;2.85;1.77;;;21.60;81.00;;;;;;4949986;28;20126;-40
2023/07/30 01:59:29;;;;;;;3.25;1.88;;;;;;;;;;4951137;28;20463;-35
2023/07/30 02:01:56;;;;;;;2.80;2.00;;;22.00;74.00;;;;;;4951413;28;20393;-39
2023/07/30 02:04:22;;;;;;;3.30;1.92;;;21.40;80.90;;;;;;4951225;28;20134;-38
2023/07/30 02:06:49;;;;;;;3.08;2.00;;;;;;;;;;4951109;28;20374;-36
2023/07/30 02:09:16;;;;;;;3.08;1.98;;;21.40;81.80;;;;;;4951124;28;20073;-37
2023/07/30 02:11:43;;;;;;;3.22;1.95;;;;;;;;;;4951478;28;20170;-38
2023/07/30 02:14:11;;;;;;;4.10;2.25;;;21.90;81.40;;;;;;4962201;28;20130;-38
2023/07/30 02:16:38;;;;;;;3.58;2.08;;;;;;;;;;4951377;28;20083;-37
2023/07/30 02:19:05;;;;;;;3.55;1.95;;;;;;;;;;4950914;28;20146;-38
2023/07/30 02:21:35;;;;;;;4.10;2.03;;;20.70;80.50;;;;;;4951268;28;20044;-40
2023/07/30 02:24:02;;;;;;;3.97;1.98;;;21.20;77.40;;;;;;4950749;28;20409;-36
2023/07/30 02:26:29;;;;;;;4.13;2.20;;;;;;;;;;4950953;28;20164;-38
2023/07/30 02:28:58;;;;;;;4.30;2.05;;;21.70;81.20;;;;;;4960515;28;20551;-37
2023/07/30 02:31:26;;;;;;;4.00;2.05;;;21.40;80.70;;;;;;4960157;28;20513;-37
2023/07/30 02:33:53;;;;;;;4.05;2.13;;;21.50;81.40;;;;;;4961662;28;20134;-37
2023/07/30 02:36:20;;;;;;;2.65;1.70;;;;;;;;;;4959967;28;20049;-36
2023/07/30 02:38:46;;;;;;;3.13;1.88;;;21.90;69.70;;;;;;4957315;28;20533;-35
2023/07/30 02:41:14;;;;;;;3.33;1.80;;;;;;;;;;4958852;28;20047;-38
2023/07/30 02:43:40;;;;;;;4.05;2.25;;;21.90;76.40;;;;;;4959964;28;20126;-35
2023/07/30 02:46:07;;;;;;;3.45;1.90;;;21.70;81.20;;;;;;4960781;28;20122;-36
2023/07/30 02:48:35;;;;;;;2.80;1.80;;;21.60;81.10;;;;;;4953712;28;20130;-38
2023/07/30 02:51:02;;;;;;;2.42;1.80;;;21.70;82.00;;;;;;4969564;28;20129;-36
2023/07/30 02:53:29;;;;;;;3.28;1.90;;;;;;;;;;4966380;28;20126;-38
2023/07/30 02:55:56;;;;;;;4.35;2.00;;;20.80;80.60;;;;;;4963136;28;20059;-36
2023/07/30 02:58:22;;;;;;;3.88;2.13;;;21.20;66.30;;;;;;4960977;28;20065;-36
2023/07/30 03:00:49;;;;;;;3.92;2.35;;;21.60;81.10;;;;;;4961777;28;20504;-37
2023/07/30 03:03:17;;;;;;;5.32;2.00;;;21.40;67.80;;;;;;4955567;28;20134;-35
2023/07/30 03:05:45;;;;;;;3.63;1.98;;;21.50;80.70;;;;;;4961098;28;20057;-37
2023/07/30 03:08:12;;;;;;;2.15;1.60;;;20.70;74.00;;;;;;4955876;28;20122;-37
2023/07/30 03:10:39;;;;;;;2.90;1.98;;;;;;;;;;5047353;28;20625;-36
2023/07/30 03:13:06;;;;;;;3.00;1.92;;;21.40;80.90;;;;;;5006992;28;20499;-36
2023/07/30 03:15:32;;;;;;;3.47;1.80;;;21.70;81.60;;;;;;4954362;28;20130;-39
2023/07/30 03:17:59;;;;;;;3.45;1.88;;;;;;;;;;4950147;28;20054;-35
2023/07/30 03:20:26;;;;;;;2.33;1.63;;;21.60;77.40;;;;;;4958961;28;20604;-37
2023/07/30 03:22:54;;;;;;;3.60;2.00;;;21.50;65.60;;;;;;4969185;28;20053;-38
2023/07/30 03:25:21;;;;;;;5.75;1.90;;;21.30;81.60;;;;;;4969728;28;20053;-36
2023/07/30 03:27:48;;;;;;;3.30;2.00;;;;;;;;;;4969342;28;20130;-36
2023/07/30 03:30:15;;;;;;;4.28;2.10;;;21.90;68.00;;;;;;4969377;28;20134;-34
2023/07/30 03:32:42;;;;;;;5.57;1.80;;;;;;;;;;4968751;28;20053;-34
2023/07/30 03:35:09;;;;;;;3.65;1.70;;;21.50;65.60;;;;;;4969133;28;20054;-36
2023/07/30 03:37:36;;;;;;;4.00;1.92;;;;;;;;;;4961896;28;20055;-35
2023/07/30 03:40:05;;;;;;;3.55;1.95;;;21.80;81.20;;;;;;4949864;28;20051;-35
2023/07/30 03:42:32;;;;;;;2.42;1.60;;;;;;;;;;4949849;28;20126;-36
2023/07/30 03:44:59;;;;;;;5.68;2.00;;;21.20;80.80;;;;;;4949597;28;20059;-38
2023/07/30 03:47:25;;;;;;;3.13;1.55;;;21.40;70.20;;;;;;4949858;28;20051;-38
2023/07/30 03:49:52;;;;;;;2.63;1.67;;;;;;;;;;4949455;28;20138;-37
2023/07/30 03:52:19;;;;;;;3.88;1.80;;;21.20;81.80;;;;;;4949689;28;20047;-38
2023/07/30 03:54:46;;;;;;;4.68;2.05;;;;;;;;;;4950856;28;20175;-36
2023/07/30 03:57:14;;;;;;;3.35;2.20;;;22.20;82.20;;;;;;4949666;28;20051;-39
2023/07/30 03:59:41;;;;;;;3.40;1.70;;;21.90;82.10;;;;;;4949696;28;20160;-36
2023/07/30 04:02:08;;;;;;;3.28;1.80;;;;;;;;;;4949426;28;20147;-40
2023/07/30 04:04:35;;;;;;;3.92;2.10;;;21.40;73.70;;;;;;4949461;28;20571;-38
2023/07/30 04:07:01;;;;;;;2.85;1.70;;;20.80;68.30;;;;;;4968632;28;20051;-37
2023/07/30 04:09:28;;;;;;;3.60;2.00;;;;;;;;;;4964777;28;20130;-38
2023/07/30 04:11:55;;;;;;;3.22;1.75;;;21.10;81.60;;;;;;4949558;28;20057;-36
2023/07/30 04:14:23;;;;;;;3.33;1.70;;;21.30;80.00;;;;;;4955263;28;20125;-35
2023/07/30 04:16:50;;;;;;;3.83;1.80;;;21.00;74.10;;;;;;4968344;28;20047;-35
2023/07/30 04:19:17;;;;;;;3.55;1.70;;;22.00;82.00;;;;;;4968818;28;20133;-37
2023/07/30 04:21:44;;;;;;;2.63;1.80;;;;;;;;;;4972348;28;20129;-38
2023/07/30 04:24:10;;;;;;;3.08;1.55;;;21.50;81.00;;;;;;4971903;28;20130;-39
2023/07/30 04:26:37;;;;;;;3.83;1.85;;;;;;;;;;4962707;28;20080;-35
2023/07/30 04:29:04;;;;;;;2.28;1.50;;;21.80;81.20;;;;;;4959066;28;20047;-39
2023/07/30 04:31:33;;;;;;;4.10;1.80;;;21.10;65.30;;;;;;4971766;28;20137;-35
2023/07/30 04:34:00;;;;;;;3.88;1.58;;;;;;;;;;4971569;28;20053;-34
2023/07/30 04:36:26;;;;;;;3.63;1.70;;;21.30;81.70;;;;;;4971481;28;20126;-35
2023/07/30 04:38:54;;;;;;;4.22;1.80;;;21.10;73.80;;;;;;4971583;28;20051;-36
2023/07/30 04:41:21;;;;;;;2.90;1.75;;;21.10;80.70;;;;;;4971554;28;20142;-37
2023/07/30 04:43:48;;;;;;;4.15;1.75;;;;;;;;;;4955613;28;20433;-36
2023/07/30 04:46:15;;;;;;;2.95;1.90;;;21.90;82.00;;;;;;4952198;28;20139;-37
2023/07/30 04:48:44;;;;;;;2.92;1.65;;;21.20;76.60;;;;;;4952345;28;20408;-37
2023/07/30 04:51:11;;;;;;;4.25;1.80;;;21.40;80.90;;;;;;4952294;28;20126;-36
2023/07/30 04:53:38;;;;;;;4.30;1.88;;;;;;;;;;4952095;28;20463;-36
2023/07/30 04:56:04;;;;;;;2.60;1.65;;;21.00;76.40;;;;;;4952211;28;20063;-36
2023/07/30 04:58:31;;;;;;;3.33;1.73;;;21.80;77.50;;;;;;4953121;28;20045;-36
2023/07/30 05:00:58;;;;;;;3.50;1.73;;;;;;;;;;4952659;28;20059;-38
2023/07/30 05:03:25;;;;;;;4.90;1.90;;;21.30;80.90;;;;;;4957902;28;20051;-37
2023/07/30 05:05:54;;;;;;;4.47;1.80;;;21.40;65.40;;;;;;4971635;28;20129;-37
2023/07/30 05:08:21;;;;;;;4.03;1.95;;;;;;;;;;4970986;28;20055;-35
2023/07/30 05:10:47;;;;;;;3.63;1.83;;;20.90;81.00;;;;;;4971284;28;20059;-37
2023/07/30 05:13:14;;;;;;;4.35;1.80;;;;;;;;;;4971178;28;20133;-40
2023/07/30 05:15:41;;;;;;;3.08;1.73;;;;;;;;;;4957971;28;20150;-38
2023/07/30 05:18:08;;;;;;;3.50;1.67;;;21.60;74.90;;;;;;4952023;28;20134;-36
2023/07/30 05:20:35;;;;;;;3.90;1.65;;;;;;;;;;4951826;28;20482;-37
2023/07/30 05:23:03;;;;;;;3.33;1.73;;;21.90;81.30;;;;;;4951560;28;20089;-36
2023/07/30 05:25:30;;;;;;;3.75;1.60;;;;;;;;;;4951743;28;20138;-35
2023/07/30 05:27:57;;;;;;;4.40;2.15;;;;;;;;;;4951475;28;20496;-36
2023/07/30 05:30:24;;;;;;;4.00;1.65;;;21.00;80.70;;;;;;4951566;28;20470;-40
2023/07/30 05:32:51;;;;;;;4.57;1.95;;;21.80;82.00;;;;;;4952578;28;20133;-35
2023/07/30 05:35:18;;;;;;;2.63;1.63;;;21.20;69.10;;;;;;4951652;28;20522;-37
2023/07/30 05:37:45;;;;;;;3.65;1.70;;;21.60;81.10;;;;;;4966321;28;20430;-36
2023/07/30 05:40:13;;;;;;;4.10;1.85;;;21.40;71.70;;;;;;4970891;28;20057;-36
2023/07/30 05:42:40;;;;;;;4.47;1.67;;;;;;;;;;4970195;28;20134;-35
2023/07/30 05:45:08;;;;;;;3.65;1.80;;;21.90;66.20;;;;;;4971003;28;20126;-40
2023/07/30 05:47:35;;;;;;;4.10;1.83;;;;;;;;;;4970747;28;20058;-37
2023/07/30 05:50:03;;;;;;;3.92;1.88;;;21.30;65.40;;;;;;4952428;28;20059;-37
2023/07/30 05:52:30;;;;;;;4.03;2.10;;;;;;;;;;4951124;28;20051;-37
2023/07/30 05:54:57;;;;;;;2.35;1.52;;;21.70;72.30;;;;;;4951110;28;20588;-36
2023/07/30 05:57:25;;;;;;;2.75;1.60;;;21.30;65.50;;;;;;4954112;28;20141;-38
2023/07/30 05:59:52;;;;;;;5.30;1.75;;;;;;;;;;4970596;28;20058;-37
2023/07/30 06:02:19;;;;;;;2.95;1.63;;;21.40;81.70;;;;;;4970222;28;20047;-38
2023/07/30 06:04:46;;;;;;;3.53;2.08;;;;;;;;;;4964392;28;20047;-34
2023/07/30 06:07:13;;;;;;;3.30;1.90;;;21.80;69.50;;;;;;4951111;28;20055;-40
2023/07/30 06:09:40;;;;;;;3.22;1.70;;;;;;;;;;4951373;28;20471;-37
2023/07/30 06:12:07;;;;;;;4.55;1.80;;;22.10;74.40;;;;;;4951140;28;20150;-37
2023/07/30 06:14:35;;;;;;;3.53;1.80;;;21.30;65.50;;;;;;4958454;28;20054;-36
2023/07/30 06:17:02;;;;;;;3.97;2.00;;;;;;;;;;4970228;28;20138;-37
2023/07/30 06:19:29;;;;;;;2.78;1.70;;;20.70;74.30;;;;;;4970239;28;20049;-39
2023/07/30 06:21:56;;;;;;;4.47;1.85;;;;;;;;;;4958501;28;20480;-35
2023/07/30 06:24:23;;;;;;;5.43;1.88;;;21.80;69.90;;;;;;4951086;28;20504;-39
2023/07/30 06:26:50;;;;;;;2.78;1.90;;;21.20;81.00;;;;;;4951052;28;20149;-39
2023/07/30 06:29:16;;;;;;;4.35;1.92;;;20.90;67.80;;;;;;4950688;28;20047;-36
2023/07/30 06:31:44;;;;;;;4.47;1.90;;;20.70;65.60;;;;;;4950799;28;20479;-36
2023/07/30 06:34:11;;;;;;;3.97;1.80;;;;;;;;;;4950597;28;20055;-35
2023/07/30 06:36:38;;;;;;;5.60;1.90;;;21.10;77.00;;;;;;4956718;28;20137;-38
2023/07/30 06:39:05;;;;;;;3.75;1.83;;;21.30;81.90;;;;;;4956294;28;20054;-38
2023/07/30 06:41:32;;;;;;;4.93;2.13;;;21.60;73.10;;;;;;4955934;28;20051;-37
2023/07/30 06:43:58;;;;;;;3.60;1.90;;;21.90;81.40;;;;;;4961928;28;20405;-39
2023/07/30 06:46:25;;;;;;;2.35;1.73;;;;;;;;;;4969827;28;20134;-34
2023/07/30 06:48:53;;;;;;;3.95;2.15;;;22.30;76.60;;;;;;4969589;28;20046;-35
2023/07/30 06:51:20;;;;;;;3.35;1.77;;;21.40;81.00;;;;;;4969415;28;20642;-37
2023/07/30 06:53:47;;;;;;;3.17;2.03;;;;;;;;;;4965876;28;20079;-35
2023/07/30 06:56:14;;;;;;;4.00;1.90;;;20.80;68.80;;;;;;4967353;28;20066;-38
2023/07/30 06:58:41;;;;;;;4.22;1.90;;;22.20;81.50;;;;;;4964125;28;20407;-36
2023/07/30 07:01:08;;;;;;;4.75;1.80;;;21.70;70.40;;;;;;4952827;28;20130;-37
2023/07/30 07:03:35;;;;;;;4.97;1.80;;;;;;;;;;4949979;28;20051;-34
2023/07/30 07:06:03;;;;;;;4.68;2.00;;;22.30;81.60;;;;;;4967480;28;20130;-39
2023/07/30 07:08:30;;;;;;;6.32;1.90;;;21.00;81.80;;;;;;4969816;28;20516;-35
2023/07/30 07:10:57;;;;;;;4.45;1.73;;;22.00;76.90;;;;;;4968160;28;20415;-34
2023/07/30 07:13:23;;;;;;;3.60;1.70;;;20.60;80.70;;;;;;4949963;28;20134;-36
2023/07/30 07:15:50;;;;;;;4.10;1.90;;;;;;;;;;4968396;28;20515;-37
2023/07/30 07:18:17;;;;;;;3.47;2.00;;;20.90;81.20;;;;;;4955101;28;20126;-39
2023/07/30 07:20:44;;;;;;;2.53;1.70;;;20.90;81.70;;;;;;4950269;28;20062;-39
2023/07/30 07:23:12;;;;;;;4.65;1.95;;;21.30;65.60;;;;;;4949816;28;20504;-35
2023/07/30 07:25:39;;;;;;;6.30;1.92;;;;;;;;;;4950261;28;20142;-34
2023/07/30 07:28:06;;;;;;;4.47;2.00;;;20.30;80.80;;;;;;4957574;28;20561;-39
2023/07/30 07:30:35;;;;;;;4.50;1.92;;;21.30;65.60;;;;;;4960972;28;20091;-35
2023/07/30 07:33:03;;;;;;;5.57;2.00;;;;;;;;;;4957508;28;20053;-37
2023/07/30 07:35:30;;;;;;;5.22;1.95;;;21.30;69.20;;;;;;4958246;28;20101;-36
2023/07/30 07:37:57;;;;;;;5.15;1.92;;;;;;;;;;4959480;28;20070;-36
2023/07/30 07:40:25;;;;;;;4.78;1.70;;;22.20;66.10;;;;;;4958984;28;20055;-35
2023/07/30 07:42:52;;;;;;;5.03;1.80;;;20.60;81.10;;;;;;4957902;28;20057;-37
2023/07/30 07:45:19;;;;;;;5.13;2.20;;;20.90;81.90;;;;;;4962170;28;20583;-39
2023/07/30 07:47:46;;;;;;;5.53;2.15;;;;;;;;;;4961534;28;20411;-35
2023/07/30 07:50:12;;;;;;;4.70;1.92;;;21.10;81.00;;;;;;4960860;28;20568;-36
2023/07/30 07:52:40;;;;;;;4.47;2.10;;;;;;;;;;4958645;28;20080;-35
2023/07/30 07:55:08;;;;;;;7.25;2.00;;;21.20;81.60;;;;;;4966767;28;20711;-36
2023/07/30 07:57:38;;;;;;;3.65;1.85;;;21.30;65.60;;;;;;4969853;28;20130;-34
2023/07/30 08:00:06;;;;;;;4.60;1.90;;;22.00;82.00;;;;;;4958629;28;20166;-37
2023/07/30 08:02:33;;;;;;;5.35;1.90;;;22.20;73.80;;;;;;4957836;28;20536;-39
2023/07/30 08:05:00;;;;;;;4.50;1.80;;;;;;;;;;4959319;28;20134;-34
2023/07/30 08:07:27;;;;;;;3.28;1.48;;;20.50;80.80;;;;;;4958771;28;20050;-36
2023/07/30 08:09:54;;;;;;;4.35;1.83;;;;;;;;;;4956841;28;20484;-37
2023/07/30 08:12:21;;;;;;;4.78;1.70;;;21.10;79.10;;;;;;4963354;28;20758;-39
2023/07/30 08:14:49;;;;;;;5.22;1.90;;;21.50;81.30;;;;;;4961915;28;20129;-37
2023/07/30 08:17:16;;;;;;;4.03;1.80;;;21.30;69.70;;;;;;4965350;28;20427;-36
2023/07/30 08:19:43;;;;;;;3.70;1.63;;;;;;;;;;4964378;28;20504;-35
2023/07/30 08:22:09;;;;;;;3.25;1.67;;;21.40;66.80;;;;;;4962534;28;20057;-34
2023/07/30 08:24:36;;;;;;;3.95;1.85;;;20.40;80.20;;;;;;4961339;28;20497;-32
2023/07/30 08:27:03;;;;;;;2.88;1.60;;;21.30;67.60;;;;;;4962681;28;20130;-33
2023/07/30 08:29:30;;;;;;;3.72;1.70;;;21.40;81.00;;;;;;4961207;28;20047;-32
2023/07/30 08:31:58;;;;;;;4.00;1.70;;;21.60;65.40;;;;;;4965720;28;20058;-34
2023/07/30 08:34:25;;;;;;;2.88;1.48;;;20.40;65.90;;;;;;4963479;28;20043;-34
2023/07/30 08:36:52;;;;;;;3.72;1.60;;;;;;;;;;4961921;28;20130;-34
2023/07/30 08:39:19;;;;;;;2.83;1.50;;;;;;;;;;4961336;28;20152;-38
2023/07/30 08:41:46;;;;;;;4.10;1.65;;;21.70;65.20;;;;;;4962905;28;20075;-37
2023/07/30 08:44:13;;;;;;;5.05;1.77;;;21.70;65.20;;;;;;4964293;28;20057;-33
2023/07/30 08:46:40;;;;;;;3.88;1.60;;;;;;;;;;4974534;28;20063;-35
2023/07/30 08:49:08;;;;;;;4.15;1.70;;;21.80;65.10;;;;;;4980158;28;20038;-35
2023/07/30 08:51:35;;;;;;;2.38;1.80;;;21.50;72.60;;;;;;4959448;28;20471;-34
2023/07/30 08:54:02;;;;;;;5.22;1.83;;;21.30;74.70;;;;;;4962383;28;20054;-35
2023/07/30 08:56:29;;;;;;;3.42;1.52;;;22.60;81.00;;;;;;4960920;28;20075;-32
2023/07/30 08:58:57;;;;;;;4.72;2.03;;;;;;;;;;4971490;28;20134;-37
2023/07/30 09:01:24;;;;;;;3.38;1.52;;;21.90;69.90;;;;;;4957309;28;20058;-34
2023/07/30 09:03:50;;;;;;;4.25;1.70;;;20.80;66.40;;;;;;4952107;28;20563;-32
2023/07/30 09:06:18;;;;;;;3.80;1.80;;;22.70;78.50;;;;;;4951756;28;20051;-32
2023/07/30 09:08:45;;;;;;;4.47;1.60;;;;;;;;;;4952145;28;20407;-33
2023/07/30 09:11:12;;;;;;;4.22;1.60;;;22.10;73.00;;;;;;4953807;28;20486;-32
2023/07/30 09:13:39;;;;;;;5.47;1.90;;;21.80;69.80;;;;;;4952302;28;20057;-33
2023/07/30 09:16:11;;;;;;;5.53;2.00;;;21.80;64.70;;;;;;4961691;28;20055;-38
2023/07/30 09:18:41;;;;;;;5.00;1.85;;;22.80;80.70;;;;;;4977149;28;20044;-32
2023/07/30 09:21:08;;;;;;;5.30;1.98;;;;;;;;;;4959596;28;20062;-34
2023/07/30 09:23:41;;;;;;;5.13;1.70;;;21.70;64.60;;;;;;4963800;28;20504;-33
2023/07/30 09:26:09;;;;;;;4.00;1.70;;;;;;;;;;4960207;28;20063;-37
2023/07/30 09:28:35;;;;;;;2.80;1.52;;;22.60;67.80;;;;;;4960527;28;20134;-32
2023/07/30 09:31:02;;;;;;;3.92;1.70;;;21.40;69.60;;;;;;4960492;28;20078;-33
2023/07/30 09:33:29;;;;;;;3.28;1.60;;;21.50;76.20;;;;;;4962029;28;20487;-33
2023/07/30 09:35:56;;;;;;;4.38;1.90;;;;;;;;;;4960445;28;20050;-33
2023/07/30 09:38:23;;;;;;;3.33;1.40;;;;;;;;;;4959392;28;20047;-35
2023/07/30 09:40:51;;;;;;;4.53;1.63;;;21.70;64.30;;;;;;4960309;28;20111;-33
2023/07/30 09:43:18;;;;;;;3.97;1.70;;;21.60;64.30;;;;;;4960372;28;20051;-33
2023/07/30 09:45:46;;;;;;;3.53;1.52;;;21.60;64.30;;;;;;4958911;28;20431;-35
2023/07/30 09:48:13;;;;;;;4.05;1.83;;;;;;;;;;4959765;28;20512;-35
2023/07/30 09:50:40;;;;;;;5.15;1.75;;;;;;;;;;4957634;28;20451;-37
2023/07/30 09:53:07;;;;;;;4.28;1.60;;;;;;;;;;4960788;28;20063;-32
2023/07/30 09:55:34;;;;;;;4.25;1.80;;;20.90;80.40;;;;;;4960439;28;20054;-32
2023/07/30 09:58:02;;;;;;;5.25;1.63;;;21.50;64.50;;;;;;4960116;28;20079;-32
2023/07/30 10:00:29;;;;;;;3.05;1.40;;;21.50;80.10;;;;;;4958654;28;20130;-33
2023/07/30 10:02:56;;;;;;;3.08;1.60;;;21.50;71.20;;;;;;4960680;28;20129;-32
2023/07/30 10:05:24;;;;;;;4.07;1.52;;;22.30;81.50;;;;;;4968111;28;20126;-33
2023/07/30 10:07:54;;;;;;;4.35;1.80;;;21.20;80.50;;;;;;4961985;28;20089;-32
2023/07/30 10:10:21;;;;;;;4.22;2.05;;;21.60;80.30;;;;;;4960690;28;20134;-32
2023/07/30 10:12:48;;;;;;;3.63;1.50;;;;;;;;;;4958749;28;20063;-36
2023/07/30 10:15:19;;;;;;;3.05;1.40;;;21.00;64.80;;;;;;4960063;28;20496;-32
2023/07/30 10:17:45;;;;;;;2.92;1.60;;;21.90;80.40;;;;;;4958713;28;20058;-32
2023/07/30 10:20:23;;;;;;;2.75;1.40;;;21.40;64.80;;;;;;4961506;28;20125;-36
2023/07/30 10:22:52;;;;;;;2.83;1.25;;;21.60;81.30;;;;;;4976729;28;20049;-32
2023/07/30 10:25:19;;;;;;;3.78;1.75;;;;;;;;;;4974368;28;20105;-36
2023/07/30 10:27:49;;;;;;;2.95;1.58;;;21.60;80.90;;;;;;4981420;28;20508;-32
2023/07/30 10:30:17;;;;;;;2.63;1.30;;;21.50;80.40;;;;;;4965213;28;20134;-32
2023/07/30 10:32:59;;;;;;;5.65;1.42;;;21.00;80.20;;;;;;4981517;28;20049;-33
2023/07/30 10:35:42;;;;;;;2.88;1.48;;;21.80;68.50;;;;;;5010100;28;20066;-34
2023/07/30 10:38:20;;;;;;;4.07;1.60;;;21.40;64.90;;;;;;4969445;28;20138;-35
2023/07/30 10:41:03;;;;;;;3.50;1.38;;;21.30;64.80;;;;;;4953522;28;20051;-37
2023/07/30 10:43:30;;;;;;;3.00;1.40;;;21.70;81.50;;;;;;4951535;28;20483;-32
2023/07/30 10:45:58;;;;;;;4.10;1.85;;;21.30;64.90;;;;;;4968624;28;20798;-36
2023/07/30 10:48:34;;;;;;;3.28;1.40;;;20.60;78.80;;;;;;4951812;28;20126;-33
2023/07/30 10:51:01;;;;;;;3.97;1.20;;;21.40;65.10;;;;;;4950515;28;20055;-36
2023/07/30 10:53:28;;;;;;;3.03;1.20;;;21.80;71.60;;;;;;4950541;28;20135;-32
2023/07/30 10:55:58;;;;;;;2.95;1.63;;;21.30;81.40;;;;;;4963473;28;20448;-32
2023/07/30 10:58:25;;;;;;;3.30;1.48;;;21.80;80.90;;;;;;4974644;28;20071;-32
2023/07/30 11:00:52;;;;;;;4.85;1.25;;;22.30;70.30;;;;;;4961825;28;20148;-33
2023/07/30 11:03:20;;;;;;;3.22;1.10;;;21.20;77.70;;;;;;4971834;28;20141;-32
2023/07/30 11:05:48;;;;;;;3.65;1.65;;;21.30;65.20;;;;;;4960503;28;20129;-33
2023/07/30 11:08:15;;;;;;;3.08;1.70;;;22.40;72.00;;;;;;4970712;28;20058;-33
2023/07/30 11:10:45;;;;;;;5.60;2.00;;;21.40;70.40;;;;;;4971859;28;20059;-34
2023/07/30 11:13:11;;;;;;;4.00;1.60;;;22.40;81.30;;;;;;4967326;28;20273;-32
2023/07/30 11:15:42;;;;;;;4.15;1.60;;;21.40;65.40;;;;;;4964501;28;20137;-34
2023/07/30 11:18:09;;;;;;;3.70;1.60;;;21.70;74.20;;;;;;4966245;28;20086;-32
2023/07/30 11:20:37;;;;;;;3.20;1.60;;;21.90;65.60;;;;;;4956643;28;20580;-32
2023/07/30 11:23:04;;;;;;;3.53;1.77;;;;;;;;;;4957913;28;20047;-36
2023/07/30 11:25:31;;;;;;;2.72;1.40;;;21.30;80.80;;;;;;4957178;28;20062;-32
2023/07/30 11:27:58;;;;;;;3.50;1.35;;;20.90;79.90;;;;;;4960256;28;20158;-33
2023/07/30 11:30:25;;;;;;;3.25;1.50;;;21.60;70.10;;;;;;4952937;28;20047;-33
2023/07/30 11:32:51;;;;;;;2.03;1.42;;;22.50;78.80;;;;;;4948847;28;20215;-32
2023/07/30 11:35:18;;;;;;;3.13;1.40;;;;;;;;;;4955493;28;20467;-32
2023/07/30 11:37:46;;;;;;;3.47;1.70;;;21.80;64.80;;;;;;4959353;28;20046;-33
2023/07/30 11:40:14;;;;;;;2.38;1.60;;;;;;;;;;4954677;28;20043;-33
2023/07/30 11:42:42;;;;;;;2.90;1.40;;;;;;;;;;4970065;28;20137;-33
2023/07/30 11:45:19;;;;;;;2.03;1.33;;;21.80;64.60;;;;;;4971133;28;20047;-35
2023/07/30 11:47:45;;;;;;;3.20;1.30;;;22.30;77.20;;;;;;4955821;28;20051;-32
2023/07/30 11:50:12;;;;;;;3.33;1.50;;;;;;;;;;4959037;28;20484;-33
2023/07/30 11:52:53;;;;;;;2.80;1.27;;;22.20;65.00;;;;;;4961310;28;20411;-34
2023/07/30 11:55:20;;;;;;;3.17;1.58;;;;;;;;;;4989187;28;20058;-34
2023/07/30 11:57:48;;;;;;;4.95;1.40;;;;;;;;;;4949814;28;20101;-35
2023/07/30 12:00:15;;;;;;;2.38;1.23;;;;;;;;;;4949876;28;20566;-34
2023/07/30 12:02:42;;;;;;;3.13;1.50;;;;;;;;;;4957231;28;20086;-35
2023/07/30 12:05:11;;;;;;;2.40;1.33;;;21.90;64.50;;;;;;4968958;28;20471;-32
2023/07/30 12:07:41;;;;;;;2.72;1.40;;;22.00;64.50;;;;;;4951274;28;20138;-40
2023/07/30 12:10:10;;;;;;;6.93;1.58;;;22.00;64.50;;;;;;4950273;28;20054;-34
2023/07/30 12:12:37;;;;;;;4.03;1.42;;;22.40;80.50;;;;;;4950585;28;20047;-32
2023/07/30 12:15:11;;;;;;;2.92;1.30;;;22.70;79.80;;;;;;4956859;28;20122;-32
2023/07/30 12:17:38;;;;;;;3.37;1.40;;;;;;;;;;4968555;28;20133;-33
2023/07/30 12:20:06;;;;;;;2.22;1.40;;;21.70;79.30;;;;;;4963446;28;20055;-33
2023/07/30 12:22:34;;;;;;;2.42;1.35;;;22.30;80.40;;;;;;4949430;28;20055;-32
2023/07/30 12:25:00;;;;;;;2.05;1.20;;;21.60;66.20;;;;;;4961523;28;20054;-35
2023/07/30 12:27:28;;;;;;;3.03;1.50;;;22.50;80.00;;;;;;4961245;28;20055;-32
2023/07/30 12:29:55;;;;;;;4.05;1.35;;;22.00;79.50;;;;;;4956945;28;20043;-34
2023/07/30 12:32:22;;;;;;;4.25;1.42;;;;;;;;;;4965538;28;20129;-34
2023/07/30 12:34:49;;;;;;;2.45;1.48;;;23.00;79.90;;;;;;4966526;28;20089;-33
2023/07/30 12:37:16;;;;;;;3.10;1.33;;;21.50;79.10;;;;;;4960377;28;20580;-33
2023/07/30 12:39:43;;;;;;;3.72;1.60;;;;;;;;;;4968594;28;20130;-36
2023/07/30 12:42:10;;;;;;;3.25;1.40;;;;;;;;;;4965447;28;20039;-34
2023/07/30 12:44:38;;;;;;;2.22;1.27;;;22.20;64.10;;;;;;4964420;28;20130;-36
2023/07/30 12:47:05;;;;;;;3.92;1.45;;;;;;;;;;4974112;28;20139;-36
2023/07/30 12:49:32;;;;;;;4.30;1.67;;;;;;;;;;4976227;28;20054;-35
2023/07/30 12:51:59;;;;;;;3.30;1.10;;;;;;;;;;4961366;28;20077;-37
2023/07/30 12:54:26;;;;;;;3.08;1.38;;;22.20;79.80;;;;;;4972858;28;20051;-34
2023/07/30 12:56:53;;;;;;;5.88;1.45;;;;;;;;;;4962224;28;20047;-37
2023/07/30 12:59:20;;;;;;;4.70;1.48;;;22.80;67.40;;;;;;4968518;28;20135;-33
2023/07/30 13:01:48;;;;;;;4.22;1.70;;;22.20;79.50;;;;;;4964858;28;20048;-34
2023/07/30 13:04:15;;;;;;;2.63;1.38;;;;;;;;;;4962237;28;20058;-36
2023/07/30 13:06:42;;;;;;;2.90;1.48;;;21.70;70.60;;;;;;4974257;28;20146;-34
2023/07/30 13:09:09;;;;;;;4.28;1.30;;;;;;;;;;4962061;28;20050;-34
2023/07/30 13:11:36;;;;;;;6.05;1.25;;;;;;;;;;4973950;28;20073;-36
2023/07/30 13:14:03;;;;;;;3.33;1.50;;;21.70;79.20;;;;;;4963411;28;20550;-35
2023/07/30 13:16:32;;;;;;;1.83;1.20;;;;;;;;;;4964724;28;20130;-36
2023/07/30 13:19:00;;;;;;;5.35;1.83;;;22.00;74.30;;;;;;4974583;28;20062;-34
2023/07/30 13:21:26;;;;;;;3.25;1.40;;;21.70;79.30;;;;;;4959060;28;20043;-33